• Join FlightAware (Why Join?)
  • Login
  • US Flag 
04:11AM EDT


 

Airport Tracker/Info


-or-


 

Live Flight TrackerFlight Track Log ✈ CTL309 ✈ 12-Jun-2013 ✈ KOSU - KHAO

Flight Track Log - Related Links

Times and Time Zones

All times are in EDT time to prevent confusion due to time zone crossing. See the CTL309 flight status page for this flight to view local times or setup timezone preferences in your user account.

Time Position Orientation Groundspeed Altitude Reporting Facility
EDT Latitude Longitude Course Direction KTS MPH feet Rate Location/Type
03:18AM 40.0725 -83.1117 242° Southwest 139 160 1,500  Level Indianapolis Center
03:19AM 40.0547 -83.1558 242° Southwest 151 174 2,000 420 Climbing Indianapolis Center
03:20AM 40.0361 -83.1981 240° Southwest 149 171 2,300 300 Climbing Indianapolis Center
03:21AM 40.0128 -83.2467 238° Southwest 153 176 2,700 480 Climbing Indianapolis Center
03:22AM 39.9881 -83.3006 239° Southwest 149 171 3,300 420 Climbing Indianapolis Center
03:23AM 39.9692 -83.3406 238° Southwest 151 174 3,600 360 Climbing Indianapolis Center
03:24AM 39.9461 -83.3906 239° Southwest 151 174 4,000 180 Climbing Indianapolis Center
03:25AM 39.9219 -83.4367 236° Southwest 155 178 4,000 -60 Level Indianapolis Center
03:26AM 39.9008 -83.4828 239° Southwest 154 177 3,900  Descending Indianapolis Center
03:27AM 39.8792 -83.5306 239° Southwest 155 178 4,100  Climbing Indianapolis Center
03:28AM 39.8519 -83.5744 231° Southwest 155 178 3,900 -60 Descending Indianapolis Center
03:29AM 39.8300 -83.6197 238° Southwest 150 173 4,000  Climbing Indianapolis Center
03:30AM 39.8064 -83.6678 237° Southwest 153 176 4,000  Level Indianapolis Center
03:31AM 39.7847 -83.7144 239° Southwest 152 175 4,000  Level Indianapolis Center
03:32AM 39.7617 -83.7603 237° Southwest 151 174 4,000  Level Indianapolis Center
03:33AM 39.7386 -83.8067 237° Southwest 151 174 4,000  Level Indianapolis Center
03:34AM 39.7142 -83.8517 235° Southwest 151 174 4,000 -60 Level Indianapolis Center
03:35AM 39.6886 -83.8958 233° Southwest 152 175 3,900  Descending Indianapolis Center
03:36AM 39.6653 -83.9417 237° Southwest 152 175 4,000  Climbing Indianapolis Center
03:37AM 39.6419 -83.9883 237° Southwest 152 175 4,000  Level Indianapolis Center
03:38AM 39.6175 -84.0342 235° Southwest 153 176 4,000 -60 Level Indianapolis Center
03:39AM 39.5969 -84.0731 236° Southwest 154 177 3,900  Descending Indianapolis Center
03:40AM 39.5733 -84.1189 236° Southwest 153 176 4,000  Climbing Indianapolis Center
03:41AM 39.5494 -84.1667 237° Southwest 155 178 3,900  Descending Indianapolis Center
03:42AM 39.5258 -84.2131 237° Southwest 154 177 4,000  Climbing Indianapolis Center
03:43AM 39.5022 -84.2564 235° Southwest 154 177 3,900 -120 Descending Indianapolis Center
03:45AM 39.4515 -84.3252 232° Southwest  Level FlightAware Approximate
03:52AM 39.3500 -84.5167 229° Southwest  Level FlightAware Approximate
03:53AM 39.3638 -84.5219 229° Southwest  Level Estimated
03:54AM 39.3638 -84.5219 229° Southwest  Level Estimated
03:55AM 39.3638 -84.5219 229° Southwest  Level Estimated
03:56AM 39.3638 -84.5219 229° Southwest  Level Estimated
03:57AM 39.3638 -84.5219 229° Southwest  Level Estimated
03:58AM 39.3638 -84.5219 229° Southwest  Level Estimated
03:59AM 39.3638 -84.5219 229° Southwest  Level Estimated